sensor_id;sensor_type;location;lat;lon;timestamp;P1;durP1;ratioP1;P2;durP2;ratioP2
22007;SDS011;11168;56.976;24.168;2022-12-18T00:01:14;365.38;;;49.30;;
22007;SDS011;11168;56.976;24.168;2022-12-18T00:03:46;490.08;;;50.05;;
22007;SDS011;11168;56.976;24.168;2022-12-18T00:06:14;265.90;;;39.53;;
22007;SDS011;11168;56.976;24.168;2022-12-18T00:08:42;329.20;;;42.63;;
22007;SDS011;11168;56.976;24.168;2022-12-18T00:11:11;246.52;;;39.58;;
22007;SDS011;11168;56.976;24.168;2022-12-18T00:13:40;210.20;;;38.80;;
22007;SDS011;11168;56.976;24.168;2022-12-18T00:16:09;235.40;;;40.78;;
22007;SDS011;11168;56.976;24.168;2022-12-18T00:18:38;243.65;;;36.40;;
22007;SDS011;11168;56.976;24.168;2022-12-18T00:21:06;184.25;;;35.33;;
22007;SDS011;11168;56.976;24.168;2022-12-18T00:23:35;152.65;;;32.95;;
22007;SDS011;11168;56.976;24.168;2022-12-18T00:26:07;166.43;;;34.78;;
22007;SDS011;11168;56.976;24.168;2022-12-18T00:28:43;159.45;;;34.55;;
22007;SDS011;11168;56.976;24.168;2022-12-18T00:31:11;183.02;;;36.50;;
22007;SDS011;11168;56.976;24.168;2022-12-18T00:33:40;183.27;;;31.30;;
22007;SDS011;11168;56.976;24.168;2022-12-18T00:36:09;160.93;;;27.65;;
22007;SDS011;11168;56.976;24.168;2022-12-18T00:38:38;165.40;;;30.80;;
22007;SDS011;11168;56.976;24.168;2022-12-18T00:41:06;159.00;;;30.17;;
22007;SDS011;11168;56.976;24.168;2022-12-18T00:43:35;161.70;;;31.65;;
22007;SDS011;11168;56.976;24.168;2022-12-18T00:46:03;157.90;;;35.92;;
22007;SDS011;11168;56.976;24.168;2022-12-18T00:48:31;131.23;;;35.45;;
22007;SDS011;11168;56.976;24.168;2022-12-18T00:50:58;151.68;;;33.55;;
22007;SDS011;11168;56.976;24.168;2022-12-18T00:53:25;133.23;;;32.05;;
22007;SDS011;11168;56.976;24.168;2022-12-18T00:55:54;119.38;;;29.02;;
22007;SDS011;11168;56.976;24.168;2022-12-18T00:58:21;136.85;;;32.17;;
22007;SDS011;11168;56.976;24.168;2022-12-18T01:00:48;157.32;;;30.05;;
22007;SDS011;11168;56.976;24.168;2022-12-18T01:03:15;175.43;;;30.10;;
22007;SDS011;11168;56.976;24.168;2022-12-18T01:05:42;174.25;;;33.30;;
22007;SDS011;11168;56.976;24.168;2022-12-18T01:08:09;162.73;;;30.48;;
22007;SDS011;11168;56.976;24.168;2022-12-18T01:10:36;131.40;;;25.77;;
22007;SDS011;11168;56.976;24.168;2022-12-18T01:13:06;154.88;;;30.63;;
22007;SDS011;11168;56.976;24.168;2022-12-18T01:15:33;154.88;;;28.35;;
22007;SDS011;11168;56.976;24.168;2022-12-18T01:18:00;129.43;;;27.75;;
22007;SDS011;11168;56.976;24.168;2022-12-18T01:20:26;139.73;;;27.77;;
22007;SDS011;11168;56.976;24.168;2022-12-18T01:22:54;96.22;;;23.83;;
22007;SDS011;11168;56.976;24.168;2022-12-18T01:25:21;91.80;;;24.98;;
22007;SDS011;11168;56.976;24.168;2022-12-18T01:27:48;103.53;;;24.13;;
22007;SDS011;11168;56.976;24.168;2022-12-18T01:30:15;100.45;;;23.42;;
22007;SDS011;11168;56.976;24.168;2022-12-18T01:32:41;94.18;;;24.83;;
22007;SDS011;11168;56.976;24.168;2022-12-18T01:35:08;89.47;;;22.30;;
22007;SDS011;11168;56.976;24.168;2022-12-18T01:37:35;96.40;;;25.13;;
22007;SDS011;11168;56.976;24.168;2022-12-18T01:40:02;99.82;;;24.98;;
22007;SDS011;11168;56.976;24.168;2022-12-18T01:42:30;106.53;;;28.02;;
22007;SDS011;11168;56.976;24.168;2022-12-18T01:47:56;112.43;;;30.45;;
22007;SDS011;11168;56.976;24.168;2022-12-18T01:50:32;112.05;;;31.02;;
22007;SDS011;11168;56.976;24.168;2022-12-18T01:53:14;125.57;;;29.48;;
22007;SDS011;11168;56.976;24.168;2022-12-18T01:56:02;115.32;;;28.00;;
22007;SDS011;11168;56.976;24.168;2022-12-18T01:58:41;101.70;;;24.58;;
22007;SDS011;11168;56.976;24.168;2022-12-18T02:01:30;107.72;;;26.98;;
22007;SDS011;11168;56.976;24.168;2022-12-18T02:07:10;88.55;;;23.08;;
22007;SDS011;11168;56.976;24.168;2022-12-18T02:13:10;88.03;;;24.77;;
22007;SDS011;11168;56.976;24.168;2022-12-18T02:15:31;97.45;;;24.05;;
22007;SDS011;11168;56.976;24.168;2022-12-18T02:18:07;86.40;;;23.38;;
22007;SDS011;11168;56.976;24.168;2022-12-18T02:20:49;86.10;;;22.20;;
22007;SDS011;11168;56.976;24.168;2022-12-18T02:28:54;87.88;;;23.73;;
22007;SDS011;11168;56.976;24.168;2022-12-18T02:31:43;78.80;;;20.55;;
22007;SDS011;11168;56.976;24.168;2022-12-18T02:34:16;76.22;;;21.27;;
22007;SDS011;11168;56.976;24.168;2022-12-18T02:36:45;71.30;;;22.17;;
22007;SDS011;11168;56.976;24.168;2022-12-18T02:39:16;71.75;;;20.50;;
22007;SDS011;11168;56.976;24.168;2022-12-18T02:41:44;67.13;;;18.15;;
22007;SDS011;11168;56.976;24.168;2022-12-18T02:44:11;71.63;;;19.75;;
22007;SDS011;11168;56.976;24.168;2022-12-18T02:46:41;77.30;;;20.98;;
22007;SDS011;11168;56.976;24.168;2022-12-18T02:49:24;68.85;;;19.55;;
22007;SDS011;11168;56.976;24.168;2022-12-18T02:52:00;64.72;;;19.23;;
22007;SDS011;11168;56.976;24.168;2022-12-18T02:57:36;63.30;;;16.30;;
22007;SDS011;11168;56.976;24.168;2022-12-18T03:00:18;60.67;;;16.77;;
22007;SDS011;11168;56.976;24.168;2022-12-18T03:03:21;59.17;;;18.15;;
22007;SDS011;11168;56.976;24.168;2022-12-18T03:08:29;59.70;;;18.40;;
22007;SDS011;11168;56.976;24.168;2022-12-18T03:11:02;63.28;;;19.08;;
22007;SDS011;11168;56.976;24.168;2022-12-18T03:13:39;58.40;;;18.80;;
22007;SDS011;11168;56.976;24.168;2022-12-18T03:16:23;54.60;;;18.58;;
22007;SDS011;11168;56.976;24.168;2022-12-18T03:18:54;51.17;;;15.45;;
22007;SDS011;11168;56.976;24.168;2022-12-18T03:21:28;61.25;;;18.63;;
22007;SDS011;11168;56.976;24.168;2022-12-18T03:24:00;51.85;;;15.95;;
22007;SDS011;11168;56.976;24.168;2022-12-18T03:26:32;53.35;;;17.05;;
22007;SDS011;11168;56.976;24.168;2022-12-18T03:29:06;56.42;;;16.88;;
22007;SDS011;11168;56.976;24.168;2022-12-18T03:31:39;47.03;;;16.05;;
22007;SDS011;11168;56.976;24.168;2022-12-18T03:34:09;45.30;;;16.10;;
22007;SDS011;11168;56.976;24.168;2022-12-18T03:36:42;49.05;;;16.70;;
22007;SDS011;11168;56.976;24.168;2022-12-18T03:39:09;45.20;;;14.45;;
22007;SDS011;11168;56.976;24.168;2022-12-18T03:47:20;38.45;;;13.95;;
22007;SDS011;11168;56.976;24.168;2022-12-18T03:52:40;40.38;;;12.98;;
22007;SDS011;11168;56.976;24.168;2022-12-18T03:55:29;35.13;;;11.82;;
22007;SDS011;11168;56.976;24.168;2022-12-18T03:57:59;38.15;;;13.02;;
22007;SDS011;11168;56.976;24.168;2022-12-18T04:00:29;38.50;;;13.05;;
22007;SDS011;11168;56.976;24.168;2022-12-18T04:02:58;36.42;;;13.88;;
22007;SDS011;11168;56.976;24.168;2022-12-18T04:05:28;83.00;;;25.70;;
22007;SDS011;11168;56.976;24.168;2022-12-18T04:07:56;73.53;;;24.52;;
22007;SDS011;11168;56.976;24.168;2022-12-18T04:10:23;56.20;;;17.70;;
22007;SDS011;11168;56.976;24.168;2022-12-18T04:12:50;48.35;;;16.80;;
22007;SDS011;11168;56.976;24.168;2022-12-18T04:15:17;38.10;;;14.27;;
22007;SDS011;11168;56.976;24.168;2022-12-18T04:17:47;41.88;;;14.18;;
22007;SDS011;11168;56.976;24.168;2022-12-18T04:20:15;33.97;;;12.73;;
22007;SDS011;11168;56.976;24.168;2022-12-18T04:22:43;37.53;;;12.60;;
22007;SDS011;11168;56.976;24.168;2022-12-18T04:25:10;32.65;;;12.32;;
22007;SDS011;11168;56.976;24.168;2022-12-18T04:27:37;29.40;;;9.93;;
22007;SDS011;11168;56.976;24.168;2022-12-18T04:30:05;32.58;;;12.80;;
22007;SDS011;11168;56.976;24.168;2022-12-18T04:32:33;37.65;;;12.75;;
22007;SDS011;11168;56.976;24.168;2022-12-18T04:35:01;35.42;;;11.82;;
22007;SDS011;11168;56.976;24.168;2022-12-18T04:37:30;27.35;;;11.00;;
22007;SDS011;11168;56.976;24.168;2022-12-18T04:39:57;36.28;;;11.45;;
22007;SDS011;11168;56.976;24.168;2022-12-18T04:42:24;33.35;;;12.43;;
22007;SDS011;11168;56.976;24.168;2022-12-18T04:44:51;31.35;;;12.13;;
22007;SDS011;11168;56.976;24.168;2022-12-18T04:47:17;33.38;;;12.48;;
22007;SDS011;11168;56.976;24.168;2022-12-18T04:49:44;29.60;;;11.40;;
22007;SDS011;11168;56.976;24.168;2022-12-18T04:52:11;34.08;;;12.73;;
22007;SDS011;11168;56.976;24.168;2022-12-18T04:54:38;20.65;;;8.10;;
22007;SDS011;11168;56.976;24.168;2022-12-18T04:57:05;34.90;;;13.73;;
22007;SDS011;11168;56.976;24.168;2022-12-18T04:59:32;25.70;;;10.60;;
22007;SDS011;11168;56.976;24.168;2022-12-18T05:01:59;37.42;;;13.73;;
22007;SDS011;11168;56.976;24.168;2022-12-18T05:04:26;34.63;;;13.90;;
22007;SDS011;11168;56.976;24.168;2022-12-18T05:06:53;37.00;;;13.70;;
22007;SDS011;11168;56.976;24.168;2022-12-18T05:09:20;36.75;;;13.85;;
22007;SDS011;11168;56.976;24.168;2022-12-18T05:11:47;39.08;;;14.90;;
22007;SDS011;11168;56.976;24.168;2022-12-18T05:14:13;37.10;;;15.65;;
22007;SDS011;11168;56.976;24.168;2022-12-18T05:16:40;34.35;;;14.63;;
22007;SDS011;11168;56.976;24.168;2022-12-18T05:19:08;40.20;;;15.98;;
22007;SDS011;11168;56.976;24.168;2022-12-18T05:21:34;39.08;;;16.05;;
22007;SDS011;11168;56.976;24.168;2022-12-18T05:24:01;40.45;;;16.50;;
22007;SDS011;11168;56.976;24.168;2022-12-18T05:26:28;38.65;;;16.05;;
22007;SDS011;11168;56.976;24.168;2022-12-18T05:28:56;34.00;;;15.57;;
22007;SDS011;11168;56.976;24.168;2022-12-18T05:31:23;37.75;;;15.95;;
22007;SDS011;11168;56.976;24.168;2022-12-18T05:33:50;38.38;;;16.10;;
22007;SDS011;11168;56.976;24.168;2022-12-18T05:36:17;39.35;;;16.00;;
22007;SDS011;11168;56.976;24.168;2022-12-18T05:38:44;24.95;;;10.98;;
22007;SDS011;11168;56.976;24.168;2022-12-18T05:41:10;43.28;;;18.80;;
22007;SDS011;11168;56.976;24.168;2022-12-18T05:43:39;46.15;;;20.35;;
22007;SDS011;11168;56.976;24.168;2022-12-18T05:46:08;45.30;;;18.30;;
22007;SDS011;11168;56.976;24.168;2022-12-18T05:48:42;43.03;;;17.20;;
22007;SDS011;11168;56.976;24.168;2022-12-18T05:51:10;37.08;;;15.77;;
22007;SDS011;11168;56.976;24.168;2022-12-18T05:53:38;42.03;;;18.83;;
22007;SDS011;11168;56.976;24.168;2022-12-18T05:56:08;40.58;;;18.25;;
22007;SDS011;11168;56.976;24.168;2022-12-18T05:58:39;40.00;;;17.60;;
22007;SDS011;11168;56.976;24.168;2022-12-18T06:01:16;43.03;;;17.38;;
22007;SDS011;11168;56.976;24.168;2022-12-18T06:03:45;36.15;;;15.35;;
22007;SDS011;11168;56.976;24.168;2022-12-18T06:06:19;34.63;;;15.88;;
22007;SDS011;11168;56.976;24.168;2022-12-18T06:08:49;33.97;;;15.70;;
22007;SDS011;11168;56.976;24.168;2022-12-18T06:11:18;37.42;;;15.40;;
22007;SDS011;11168;56.976;24.168;2022-12-18T06:13:49;38.75;;;14.40;;
22007;SDS011;11168;56.976;24.168;2022-12-18T06:16:23;33.92;;;12.68;;
22007;SDS011;11168;56.976;24.168;2022-12-18T06:18:50;33.63;;;14.18;;
22007;SDS011;11168;56.976;24.168;2022-12-18T06:21:17;30.75;;;12.70;;
22007;SDS011;11168;56.976;24.168;2022-12-18T06:23:45;28.20;;;10.90;;
22007;SDS011;11168;56.976;24.168;2022-12-18T06:26:12;26.33;;;12.60;;
22007;SDS011;11168;56.976;24.168;2022-12-18T06:28:40;24.13;;;11.52;;
22007;SDS011;11168;56.976;24.168;2022-12-18T06:31:08;26.33;;;11.07;;
22007;SDS011;11168;56.976;24.168;2022-12-18T06:33:35;20.45;;;10.02;;
22007;SDS011;11168;56.976;24.168;2022-12-18T06:36:08;25.33;;;10.95;;
22007;SDS011;11168;56.976;24.168;2022-12-18T06:38:38;23.45;;;10.52;;
22007;SDS011;11168;56.976;24.168;2022-12-18T06:41:10;29.15;;;11.10;;
22007;SDS011;11168;56.976;24.168;2022-12-18T06:43:38;23.45;;;10.35;;
22007;SDS011;11168;56.976;24.168;2022-12-18T06:46:06;25.20;;;10.90;;
22007;SDS011;11168;56.976;24.168;2022-12-18T06:48:32;25.77;;;10.77;;
22007;SDS011;11168;56.976;24.168;2022-12-18T06:51:00;30.48;;;11.70;;
22007;SDS011;11168;56.976;24.168;2022-12-18T06:53:27;29.08;;;12.05;;
22007;SDS011;11168;56.976;24.168;2022-12-18T06:56:04;30.98;;;11.25;;
22007;SDS011;11168;56.976;24.168;2022-12-18T06:58:36;24.17;;;10.50;;
22007;SDS011;11168;56.976;24.168;2022-12-18T07:01:04;25.75;;;10.27;;
22007;SDS011;11168;56.976;24.168;2022-12-18T07:03:33;27.42;;;11.80;;
22007;SDS011;11168;56.976;24.168;2022-12-18T07:06:00;24.63;;;10.60;;
22007;SDS011;11168;56.976;24.168;2022-12-18T07:08:28;27.70;;;11.38;;
22007;SDS011;11168;56.976;24.168;2022-12-18T07:10:56;20.50;;;9.18;;
22007;SDS011;11168;56.976;24.168;2022-12-18T07:13:23;30.75;;;11.63;;
22007;SDS011;11168;56.976;24.168;2022-12-18T07:15:50;24.17;;;10.55;;
22007;SDS011;11168;56.976;24.168;2022-12-18T07:18:17;25.23;;;10.57;;
22007;SDS011;11168;56.976;24.168;2022-12-18T07:20:44;25.75;;;11.15;;
22007;SDS011;11168;56.976;24.168;2022-12-18T07:23:12;28.63;;;11.02;;
22007;SDS011;11168;56.976;24.168;2022-12-18T07:25:39;28.35;;;11.70;;
22007;SDS011;11168;56.976;24.168;2022-12-18T07:28:06;24.45;;;11.27;;
22007;SDS011;11168;56.976;24.168;2022-12-18T07:30:40;26.15;;;11.15;;
22007;SDS011;11168;56.976;24.168;2022-12-18T07:33:07;24.77;;;10.88;;
22007;SDS011;11168;56.976;24.168;2022-12-18T07:35:34;25.90;;;10.35;;
22007;SDS011;11168;56.976;24.168;2022-12-18T07:38:04;25.30;;;11.20;;
22007;SDS011;11168;56.976;24.168;2022-12-18T07:40:33;26.15;;;11.60;;
22007;SDS011;11168;56.976;24.168;2022-12-18T07:43:00;34.65;;;12.90;;
22007;SDS011;11168;56.976;24.168;2022-12-18T07:45:29;31.10;;;12.73;;
22007;SDS011;11168;56.976;24.168;2022-12-18T07:47:56;31.77;;;12.25;;
22007;SDS011;11168;56.976;24.168;2022-12-18T07:50:23;27.85;;;11.77;;
22007;SDS011;11168;56.976;24.168;2022-12-18T07:52:50;32.30;;;13.55;;
22007;SDS011;11168;56.976;24.168;2022-12-18T07:55:17;30.13;;;12.43;;
22007;SDS011;11168;56.976;24.168;2022-12-18T07:57:43;29.15;;;12.00;;
22007;SDS011;11168;56.976;24.168;2022-12-18T08:00:17;28.73;;;12.60;;
22007;SDS011;11168;56.976;24.168;2022-12-18T08:02:44;34.45;;;13.77;;
22007;SDS011;11168;56.976;24.168;2022-12-18T08:05:11;32.72;;;14.00;;
22007;SDS011;11168;56.976;24.168;2022-12-18T08:07:41;36.70;;;15.10;;
22007;SDS011;11168;56.976;24.168;2022-12-18T08:10:08;34.78;;;14.40;;
22007;SDS011;11168;56.976;24.168;2022-12-18T08:12:35;33.60;;;15.13;;
22007;SDS011;11168;56.976;24.168;2022-12-18T08:15:02;34.45;;;14.18;;
22007;SDS011;11168;56.976;24.168;2022-12-18T08:17:30;33.97;;;15.23;;
22007;SDS011;11168;56.976;24.168;2022-12-18T08:19:56;36.40;;;15.35;;
22007;SDS011;11168;56.976;24.168;2022-12-18T08:22:23;28.85;;;13.40;;
22007;SDS011;11168;56.976;24.168;2022-12-18T08:24:51;27.02;;;12.52;;
22007;SDS011;11168;56.976;24.168;2022-12-18T08:27:18;30.27;;;12.75;;
22007;SDS011;11168;56.976;24.168;2022-12-18T08:29:55;27.27;;;12.15;;
22007;SDS011;11168;56.976;24.168;2022-12-18T08:32:22;23.55;;;11.07;;
22007;SDS011;11168;56.976;24.168;2022-12-18T08:34:50;24.85;;;11.35;;
22007;SDS011;11168;56.976;24.168;2022-12-18T08:37:17;25.20;;;11.82;;
22007;SDS011;11168;56.976;24.168;2022-12-18T08:39:44;27.65;;;12.32;;
22007;SDS011;11168;56.976;24.168;2022-12-18T08:42:11;32.50;;;13.07;;
22007;SDS011;11168;56.976;24.168;2022-12-18T08:45:14;30.15;;;13.75;;
22007;SDS011;11168;56.976;24.168;2022-12-18T08:47:41;35.95;;;15.20;;
22007;SDS011;11168;56.976;24.168;2022-12-18T08:50:09;33.25;;;14.73;;
22007;SDS011;11168;56.976;24.168;2022-12-18T08:52:35;34.40;;;15.57;;
22007;SDS011;11168;56.976;24.168;2022-12-18T08:55:03;31.63;;;13.43;;
22007;SDS011;11168;56.976;24.168;2022-12-18T08:57:30;31.23;;;14.10;;
22007;SDS011;11168;56.976;24.168;2022-12-18T08:59:57;26.83;;;12.77;;
22007;SDS011;11168;56.976;24.168;2022-12-18T09:02:24;27.27;;;12.93;;
22007;SDS011;11168;56.976;24.168;2022-12-18T09:04:51;26.63;;;12.10;;
22007;SDS011;11168;56.976;24.168;2022-12-18T09:07:22;27.67;;;12.35;;
22007;SDS011;11168;56.976;24.168;2022-12-18T09:09:49;27.23;;;12.32;;
22007;SDS011;11168;56.976;24.168;2022-12-18T09:12:16;31.75;;;12.02;;
22007;SDS011;11168;56.976;24.168;2022-12-18T09:14:43;27.83;;;12.25;;
22007;SDS011;11168;56.976;24.168;2022-12-18T09:17:10;26.13;;;11.82;;
22007;SDS011;11168;56.976;24.168;2022-12-18T09:19:37;26.77;;;12.07;;
22007;SDS011;11168;56.976;24.168;2022-12-18T09:22:04;24.98;;;12.23;;
22007;SDS011;11168;56.976;24.168;2022-12-18T09:24:31;27.73;;;12.93;;
22007;SDS011;11168;56.976;24.168;2022-12-18T09:26:58;19.55;;;9.85;;
22007;SDS011;11168;56.976;24.168;2022-12-18T09:29:25;27.10;;;12.68;;
22007;SDS011;11168;56.976;24.168;2022-12-18T09:31:52;28.52;;;13.50;;
22007;SDS011;11168;56.976;24.168;2022-12-18T09:34:19;23.60;;;12.07;;
22007;SDS011;11168;56.976;24.168;2022-12-18T09:36:48;27.35;;;11.65;;
22007;SDS011;11168;56.976;24.168;2022-12-18T09:39:15;24.90;;;12.15;;
22007;SDS011;11168;56.976;24.168;2022-12-18T09:44:23;25.42;;;12.13;;
22007;SDS011;11168;56.976;24.168;2022-12-18T09:46:59;27.33;;;13.07;;
22007;SDS011;11168;56.976;24.168;2022-12-18T09:49:48;25.23;;;13.20;;
22007;SDS011;11168;56.976;24.168;2022-12-18T09:52:23;25.80;;;13.00;;
22007;SDS011;11168;56.976;24.168;2022-12-18T09:54:58;27.52;;;13.55;;
22007;SDS011;11168;56.976;24.168;2022-12-18T09:57:47;29.55;;;13.55;;
22007;SDS011;11168;56.976;24.168;2022-12-18T10:00:20;28.15;;;14.20;;
22007;SDS011;11168;56.976;24.168;2022-12-18T10:02:52;29.63;;;15.10;;
22007;SDS011;11168;56.976;24.168;2022-12-18T10:05:29;25.25;;;13.30;;
22007;SDS011;11168;56.976;24.168;2022-12-18T10:10:45;26.25;;;12.50;;
22007;SDS011;11168;56.976;24.168;2022-12-18T10:21:45;25.05;;;13.13;;
22007;SDS011;11168;56.976;24.168;2022-12-18T10:27:21;26.90;;;13.55;;
22007;SDS011;11168;56.976;24.168;2022-12-18T10:29:50;27.75;;;13.55;;
22007;SDS011;11168;56.976;24.168;2022-12-18T10:32:18;27.42;;;14.02;;
22007;SDS011;11168;56.976;24.168;2022-12-18T10:34:54;26.65;;;14.02;;
22007;SDS011;11168;56.976;24.168;2022-12-18T10:37:27;25.92;;;13.75;;
22007;SDS011;11168;56.976;24.168;2022-12-18T10:48:49;33.45;;;15.90;;
22007;SDS011;11168;56.976;24.168;2022-12-18T10:54:23;26.02;;;13.38;;
22007;SDS011;11168;56.976;24.168;2022-12-18T10:56:47;34.85;;;16.02;;
22007;SDS011;11168;56.976;24.168;2022-12-18T10:59:15;32.72;;;15.65;;
22007;SDS011;11168;56.976;24.168;2022-12-18T11:01:54;40.60;;;19.58;;
22007;SDS011;11168;56.976;24.168;2022-12-18T11:04:26;42.83;;;22.45;;
22007;SDS011;11168;56.976;24.168;2022-12-18T11:09:34;38.65;;;21.77;;
22007;SDS011;11168;56.976;24.168;2022-12-18T11:12:23;37.75;;;19.08;;
22007;SDS011;11168;56.976;24.168;2022-12-18T11:14:52;33.40;;;15.98;;
22007;SDS011;11168;56.976;24.168;2022-12-18T11:17:33;26.70;;;13.95;;
22007;SDS011;11168;56.976;24.168;2022-12-18T11:20:03;28.20;;;14.10;;
22007;SDS011;11168;56.976;24.168;2022-12-18T11:22:33;31.52;;;14.35;;
22007;SDS011;11168;56.976;24.168;2022-12-18T11:25:20;34.38;;;14.45;;
22007;SDS011;11168;56.976;24.168;2022-12-18T11:30:29;36.40;;;15.65;;
22007;SDS011;11168;56.976;24.168;2022-12-18T11:38:23;31.52;;;15.30;;
22007;SDS011;11168;56.976;24.168;2022-12-18T11:40:56;33.25;;;15.30;;
22007;SDS011;11168;56.976;24.168;2022-12-18T11:43:26;31.15;;;14.05;;
22007;SDS011;11168;56.976;24.168;2022-12-18T11:46:05;28.88;;;14.43;;
22007;SDS011;11168;56.976;24.168;2022-12-18T11:48:49;30.17;;;12.73;;
22007;SDS011;11168;56.976;24.168;2022-12-18T11:51:38;34.63;;;14.15;;
22007;SDS011;11168;56.976;24.168;2022-12-18T11:54:22;29.92;;;13.75;;
22007;SDS011;11168;56.976;24.168;2022-12-18T12:01:54;32.47;;;14.85;;
22007;SDS011;11168;56.976;24.168;2022-12-18T12:04:37;33.17;;;14.48;;
22007;SDS011;11168;56.976;24.168;2022-12-18T12:07:12;30.98;;;14.90;;
22007;SDS011;11168;56.976;24.168;2022-12-18T12:10:14;32.95;;;13.98;;
22007;SDS011;11168;56.976;24.168;2022-12-18T12:21:14;33.88;;;16.20;;
22007;SDS011;11168;56.976;24.168;2022-12-18T12:26:40;36.07;;;16.43;;
22007;SDS011;11168;56.976;24.168;2022-12-18T12:40:20;37.42;;;17.38;;
22007;SDS011;11168;56.976;24.168;2022-12-18T12:43:19;39.28;;;16.35;;
22007;SDS011;11168;56.976;24.168;2022-12-18T12:45:50;40.85;;;16.05;;
22007;SDS011;11168;56.976;24.168;2022-12-18T12:48:36;35.08;;;16.20;;
22007;SDS011;11168;56.976;24.168;2022-12-18T12:51:10;34.75;;;15.48;;
22007;SDS011;11168;56.976;24.168;2022-12-18T12:53:49;35.45;;;17.10;;
22007;SDS011;11168;56.976;24.168;2022-12-18T12:56:18;35.45;;;15.98;;
22007;SDS011;11168;56.976;24.168;2022-12-18T13:07:28;31.67;;;14.73;;
22007;SDS011;11168;56.976;24.168;2022-12-18T13:12:54;32.97;;;16.00;;
22007;SDS011;11168;56.976;24.168;2022-12-18T13:18:34;44.53;;;18.83;;
22007;SDS011;11168;56.976;24.168;2022-12-18T13:21:04;47.00;;;18.90;;
22007;SDS011;11168;56.976;24.168;2022-12-18T13:23:44;38.28;;;15.23;;
22007;SDS011;11168;56.976;24.168;2022-12-18T13:28:54;37.67;;;15.70;;
22007;SDS011;11168;56.976;24.168;2022-12-18T13:36:55;31.23;;;14.90;;
22007;SDS011;11168;56.976;24.168;2022-12-18T13:39:32;31.17;;;14.63;;
22007;SDS011;11168;56.976;24.168;2022-12-18T13:45:35;32.92;;;16.05;;
22007;SDS011;11168;56.976;24.168;2022-12-18T13:48:12;30.63;;;14.25;;
22007;SDS011;11168;56.976;24.168;2022-12-18T13:50:49;35.30;;;16.88;;
22007;SDS011;11168;56.976;24.168;2022-12-18T13:53:26;34.80;;;15.75;;
22007;SDS011;11168;56.976;24.168;2022-12-18T13:55:56;45.22;;;17.08;;
22007;SDS011;11168;56.976;24.168;2022-12-18T13:58:23;34.63;;;17.17;;
22007;SDS011;11168;56.976;24.168;2022-12-18T14:00:50;38.83;;;17.50;;
22007;SDS011;11168;56.976;24.168;2022-12-18T14:03:18;34.55;;;16.05;;
22007;SDS011;11168;56.976;24.168;2022-12-18T14:06:11;35.45;;;15.93;;
22007;SDS011;11168;56.976;24.168;2022-12-18T14:08:37;40.30;;;17.73;;
22007;SDS011;11168;56.976;24.168;2022-12-18T14:11:18;39.83;;;18.73;;
22007;SDS011;11168;56.976;24.168;2022-12-18T14:13:48;38.05;;;18.17;;
22007;SDS011;11168;56.976;24.168;2022-12-18T14:16:16;38.30;;;18.00;;
22007;SDS011;11168;56.976;24.168;2022-12-18T14:18:56;38.88;;;18.27;;
22007;SDS011;11168;56.976;24.168;2022-12-18T14:21:38;42.08;;;18.23;;
22007;SDS011;11168;56.976;24.168;2022-12-18T14:26:35;41.80;;;19.42;;
22007;SDS011;11168;56.976;24.168;2022-12-18T14:32:11;40.42;;;18.40;;
22007;SDS011;11168;56.976;24.168;2022-12-18T14:34:46;36.88;;;15.38;;
22007;SDS011;11168;56.976;24.168;2022-12-18T14:37:20;46.78;;;19.50;;
22007;SDS011;11168;56.976;24.168;2022-12-18T14:39:55;38.50;;;17.90;;
22007;SDS011;11168;56.976;24.168;2022-12-18T14:42:35;30.13;;;15.05;;
22007;SDS011;11168;56.976;24.168;2022-12-18T14:48:08;32.75;;;14.32;;
22007;SDS011;11168;56.976;24.168;2022-12-18T14:53:32;32.40;;;15.25;;
22007;SDS011;11168;56.976;24.168;2022-12-18T14:56:00;27.73;;;13.30;;
22007;SDS011;11168;56.976;24.168;2022-12-18T14:58:28;31.45;;;14.05;;
22007;SDS011;11168;56.976;24.168;2022-12-18T15:00:55;30.73;;;14.43;;
22007;SDS011;11168;56.976;24.168;2022-12-18T15:03:25;33.83;;;14.75;;
22007;SDS011;11168;56.976;24.168;2022-12-18T15:05:52;36.95;;;15.30;;
22007;SDS011;11168;56.976;24.168;2022-12-18T15:08:27;33.15;;;15.82;;
22007;SDS011;11168;56.976;24.168;2022-12-18T15:11:02;31.58;;;14.55;;
22007;SDS011;11168;56.976;24.168;2022-12-18T15:13:36;37.70;;;16.88;;
22007;SDS011;11168;56.976;24.168;2022-12-18T15:16:04;39.00;;;17.42;;
22007;SDS011;11168;56.976;24.168;2022-12-18T15:18:41;36.33;;;16.58;;
22007;SDS011;11168;56.976;24.168;2022-12-18T15:21:10;38.25;;;17.17;;
22007;SDS011;11168;56.976;24.168;2022-12-18T15:23:52;32.05;;;15.73;;
22007;SDS011;11168;56.976;24.168;2022-12-18T15:26:19;40.63;;;16.45;;
22007;SDS011;11168;56.976;24.168;2022-12-18T15:28:48;34.78;;;16.08;;
22007;SDS011;11168;56.976;24.168;2022-12-18T15:31:23;37.45;;;17.80;;
22007;SDS011;11168;56.976;24.168;2022-12-18T15:36:20;34.83;;;15.18;;
22007;SDS011;11168;56.976;24.168;2022-12-18T15:38:53;26.70;;;12.10;;
22007;SDS011;11168;56.976;24.168;2022-12-18T15:41:34;38.42;;;15.65;;
22007;SDS011;11168;56.976;24.168;2022-12-18T15:44:20;30.95;;;15.95;;
22007;SDS011;11168;56.976;24.168;2022-12-18T15:46:52;30.33;;;13.73;;
22007;SDS011;11168;56.976;24.168;2022-12-18T15:49:22;27.23;;;14.23;;
22007;SDS011;11168;56.976;24.168;2022-12-18T15:51:50;32.90;;;15.75;;
22007;SDS011;11168;56.976;24.168;2022-12-18T15:57:10;34.95;;;15.15;;
22007;SDS011;11168;56.976;24.168;2022-12-18T15:59:54;35.53;;;15.55;;
22007;SDS011;11168;56.976;24.168;2022-12-18T16:02:24;33.78;;;15.27;;
22007;SDS011;11168;56.976;24.168;2022-12-18T16:04:52;39.97;;;18.15;;
22007;SDS011;11168;56.976;24.168;2022-12-18T16:07:20;31.00;;;14.80;;
22007;SDS011;11168;56.976;24.168;2022-12-18T16:09:51;33.67;;;15.20;;
22007;SDS011;11168;56.976;24.168;2022-12-18T16:12:21;30.05;;;15.02;;
22007;SDS011;11168;56.976;24.168;2022-12-18T16:14:50;31.30;;;15.73;;
22007;SDS011;11168;56.976;24.168;2022-12-18T16:17:17;35.25;;;15.40;;
22007;SDS011;11168;56.976;24.168;2022-12-18T16:19:44;32.28;;;15.43;;
22007;SDS011;11168;56.976;24.168;2022-12-18T16:22:19;33.63;;;14.82;;
22007;SDS011;11168;56.976;24.168;2022-12-18T16:24:48;29.15;;;13.68;;
22007;SDS011;11168;56.976;24.168;2022-12-18T16:27:16;31.27;;;14.90;;
22007;SDS011;11168;56.976;24.168;2022-12-18T16:29:43;32.25;;;12.85;;
22007;SDS011;11168;56.976;24.168;2022-12-18T16:32:12;29.27;;;14.25;;
22007;SDS011;11168;56.976;24.168;2022-12-18T16:34:41;32.97;;;13.52;;
22007;SDS011;11168;56.976;24.168;2022-12-18T16:37:10;32.67;;;14.70;;
22007;SDS011;11168;56.976;24.168;2022-12-18T16:39:39;31.30;;;14.73;;
22007;SDS011;11168;56.976;24.168;2022-12-18T16:42:13;33.47;;;15.35;;
22007;SDS011;11168;56.976;24.168;2022-12-18T16:44:45;30.13;;;14.27;;
22007;SDS011;11168;56.976;24.168;2022-12-18T16:47:13;28.48;;;13.65;;
22007;SDS011;11168;56.976;24.168;2022-12-18T16:49:41;26.70;;;12.93;;